createdAt,value
2023-01-25T00:02:08.604Z,18.70
2023-01-25T00:04:35.528Z,17.90
2023-01-25T00:07:02.301Z,19.47
2023-01-25T00:09:29.010Z,18.03
2023-01-25T00:11:57.968Z,18.07
2023-01-25T00:14:24.945Z,19.80
2023-01-25T00:16:51.956Z,20.07
2023-01-25T00:19:18.996Z,20.57
2023-01-25T00:21:45.723Z,21.00
2023-01-25T00:24:14.319Z,20.57
2023-01-25T00:26:44.070Z,18.83
2023-01-25T00:29:14.618Z,18.87
2023-01-25T00:31:49.304Z,20.27
2023-01-25T00:34:24.874Z,22.77
2023-01-25T00:37:01.164Z,21.87
2023-01-25T00:39:28.660Z,20.47
2023-01-25T00:41:55.862Z,19.37
2023-01-25T00:44:22.592Z,17.90
2023-01-25T00:46:49.516Z,20.70
2023-01-25T00:49:22.112Z,24.03
2023-01-25T00:51:49.736Z,22.70
2023-01-25T00:54:16.913Z,24.70
2023-01-25T00:56:43.830Z,26.97
2023-01-25T00:59:11.174Z,21.77
2023-01-25T01:01:38.329Z,22.70
2023-01-25T01:04:06.581Z,20.80
2023-01-25T01:06:36.310Z,23.90
2023-01-25T01:09:04.224Z,21.07
2023-01-25T01:11:31.775Z,21.50
2023-01-25T01:13:59.636Z,24.87
2023-01-25T01:16:27.345Z,23.00
2023-01-25T01:18:54.409Z,22.80
2023-01-25T01:21:21.792Z,24.93
2023-01-25T01:23:48.670Z,22.33
2023-01-25T01:26:19.277Z,23.73
2023-01-25T01:28:46.358Z,21.73
2023-01-25T01:31:19.245Z,24.97
2023-01-25T01:33:50.290Z,25.00
2023-01-25T01:36:18.855Z,24.33
2023-01-25T01:38:46.065Z,25.07
2023-01-25T01:41:13.707Z,21.17
2023-01-25T01:43:40.679Z,21.93
2023-01-25T01:46:33.388Z,25.40
2023-01-25T01:49:21.200Z,25.03
2023-01-25T01:51:53.327Z,27.40
2023-01-25T01:54:37.532Z,26.00
2023-01-25T01:57:14.901Z,27.43
2023-01-25T01:59:50.003Z,25.83
2023-01-25T02:02:17.051Z,23.30
2023-01-25T02:04:46.704Z,26.20
2023-01-25T02:07:35.114Z,28.03
2023-01-25T02:10:06.602Z,27.27
2023-01-25T02:12:34.931Z,27.33
2023-01-25T02:15:01.954Z,26.57
2023-01-25T02:17:35.656Z,29.17
2023-01-25T02:20:12.873Z,30.03
2023-01-25T02:22:47.594Z,26.20
2023-01-25T02:25:16.506Z,27.93
2023-01-25T02:28:09.986Z,30.23
2023-01-25T02:30:36.705Z,32.50
2023-01-25T02:33:03.525Z,29.23
2023-01-25T02:35:46.228Z,30.77
2023-01-25T02:38:15.896Z,26.97
2023-01-25T02:40:57.658Z,31.20
2023-01-25T02:43:28.176Z,35.43
2023-01-25T02:46:06.256Z,34.37
2023-01-25T02:48:33.021Z,29.57
2023-01-25T02:50:59.711Z,33.97
2023-01-25T02:53:27.515Z,30.30
2023-01-25T02:55:54.230Z,36.57
2023-01-25T02:58:21.039Z,34.17
2023-01-25T03:00:48.033Z,32.67
2023-01-25T03:03:14.810Z,37.87
2023-01-25T03:05:41.488Z,32.30
2023-01-25T03:08:08.236Z,35.53
2023-01-25T03:10:35.010Z,33.70
2023-01-25T03:13:01.769Z,31.50
2023-01-25T03:15:28.452Z,31.87
2023-01-25T03:17:56.784Z,34.20
2023-01-25T03:20:23.509Z,35.27
2023-01-25T03:22:50.313Z,36.10
2023-01-25T03:25:17.120Z,41.23
2023-01-25T03:27:43.795Z,35.13
2023-01-25T03:30:11.084Z,33.37
2023-01-25T03:32:38.239Z,33.43
2023-01-25T03:35:06.410Z,36.70
2023-01-25T03:37:34.206Z,33.87
2023-01-25T03:40:01.267Z,34.30
2023-01-25T03:42:28.023Z,35.07
2023-01-25T03:44:54.720Z,30.17
2023-01-25T03:47:21.492Z,35.23
2023-01-25T03:49:48.211Z,38.10
2023-01-25T03:52:14.906Z,31.20
2023-01-25T03:54:41.907Z,36.73
2023-01-25T03:57:08.668Z,32.87
2023-01-25T03:59:35.416Z,37.63
2023-01-25T04:02:03.043Z,35.60
2023-01-25T04:04:29.940Z,36.80
2023-01-25T04:06:56.684Z,34.33
2023-01-25T04:09:23.500Z,37.03
2023-01-25T04:11:51.339Z,37.40
2023-01-25T04:14:25.526Z,38.87
2023-01-25T04:16:58.599Z,40.73
2023-01-25T04:19:25.296Z,38.07
2023-01-25T04:21:52.016Z,37.00
2023-01-25T04:24:18.826Z,41.23
2023-01-25T04:26:45.550Z,37.97
2023-01-25T04:29:12.983Z,38.70
2023-01-25T04:31:39.802Z,38.17
2023-01-25T04:34:06.742Z,36.47
2023-01-25T04:36:33.452Z,38.13
2023-01-25T04:39:00.219Z,45.97
2023-01-25T04:41:29.148Z,42.13
2023-01-25T04:43:55.945Z,41.07
2023-01-25T04:46:22.653Z,42.03
2023-01-25T04:48:49.360Z,46.50
2023-01-25T04:51:16.069Z,42.60
2023-01-25T04:53:42.777Z,43.40
2023-01-25T04:56:09.531Z,41.10
2023-01-25T04:58:36.330Z,39.53
2023-01-25T05:01:03.428Z,43.67
2023-01-25T05:03:30.391Z,44.67
2023-01-25T05:05:57.153Z,49.90
2023-01-25T05:08:24.073Z,45.10
2023-01-25T05:10:50.792Z,45.87
2023-01-25T05:13:17.561Z,45.20
2023-01-25T05:15:44.302Z,49.80
2023-01-25T05:18:11.097Z,43.40
2023-01-25T05:20:37.869Z,43.30
2023-01-25T05:23:04.574Z,45.30
2023-01-25T05:25:49.826Z,45.80
2023-01-25T05:28:16.573Z,44.67
2023-01-25T05:30:43.282Z,45.20
2023-01-25T05:33:10.038Z,49.27
2023-01-25T05:35:36.746Z,47.77
2023-01-25T05:38:03.772Z,48.03
2023-01-25T05:40:30.553Z,50.93
2023-01-25T05:42:58.681Z,49.90
2023-01-25T05:45:26.108Z,51.13
2023-01-25T05:47:57.669Z,46.43
2023-01-25T05:50:25.545Z,49.57
2023-01-25T05:52:52.229Z,44.67
2023-01-25T05:55:19.013Z,49.40
2023-01-25T05:57:45.823Z,47.60
2023-01-25T06:00:13.017Z,55.87
2023-01-25T06:02:39.999Z,55.93
2023-01-25T06:05:07.595Z,60.27
2023-01-25T06:07:36.361Z,59.80
2023-01-25T06:10:05.014Z,60.07
2023-01-25T06:12:33.154Z,61.73
2023-01-25T06:14:59.841Z,70.20
2023-01-25T06:17:26.729Z,60.77
2023-01-25T06:19:53.402Z,62.73
2023-01-25T06:22:20.135Z,72.10
2023-01-25T06:24:46.851Z,62.97
2023-01-25T06:27:13.584Z,62.67
2023-01-25T06:29:40.355Z,59.50
2023-01-25T06:32:07.145Z,65.47
2023-01-25T06:34:33.913Z,64.60
2023-01-25T06:37:00.635Z,61.07
2023-01-25T06:39:27.411Z,65.77
2023-01-25T06:41:55.044Z,66.97
2023-01-25T06:44:21.920Z,67.67
2023-01-25T06:46:48.752Z,64.40
2023-01-25T06:49:15.576Z,62.47
2023-01-25T06:51:42.326Z,70.77
2023-01-25T06:54:09.026Z,65.20
2023-01-25T06:56:36.392Z,67.73
2023-01-25T06:59:03.293Z,62.33
2023-01-25T07:01:30.743Z,63.80
2023-01-25T07:03:59.292Z,62.57
2023-01-25T07:06:32.151Z,66.07
2023-01-25T07:09:06.199Z,70.90
2023-01-25T07:11:33.164Z,65.13
2023-01-25T07:14:00.403Z,66.47
2023-01-25T07:16:27.595Z,67.97
2023-01-25T07:18:55.118Z,66.13
2023-01-25T07:21:23.614Z,63.20
2023-01-25T07:23:51.524Z,64.43
2023-01-25T07:26:21.237Z,66.03
2023-01-25T07:28:48.880Z,63.90
2023-01-25T07:31:16.985Z,66.70
2023-01-25T07:33:44.007Z,67.47
2023-01-25T07:36:11.579Z,72.87
2023-01-25T07:38:38.412Z,64.10
2023-01-25T07:41:05.670Z,68.07
2023-01-25T07:43:32.569Z,67.97
2023-01-25T07:46:13.067Z,67.20
2023-01-25T07:48:41.250Z,64.33
2023-01-25T07:51:13.035Z,69.77
2023-01-25T07:53:41.491Z,65.60
2023-01-25T07:56:09.622Z,67.23
2023-01-25T07:58:36.669Z,76.63
2023-01-25T08:01:17.936Z,68.50
2023-01-25T08:03:45.912Z,61.63
2023-01-25T08:06:13.235Z,68.57
2023-01-25T08:08:45.323Z,64.93
2023-01-25T08:11:22.263Z,69.67
2023-01-25T08:13:50.103Z,62.47
2023-01-25T08:16:21.913Z,65.47
2023-01-25T08:18:54.847Z,65.67
2023-01-25T08:21:24.297Z,61.53
2023-01-25T08:23:51.637Z,65.60
2023-01-25T08:26:18.658Z,67.00
2023-01-25T08:28:45.510Z,62.93
2023-01-25T08:31:19.085Z,61.57
2023-01-25T08:33:46.884Z,64.50
2023-01-25T08:36:15.508Z,63.23
2023-01-25T08:38:42.566Z,71.03
2023-01-25T08:41:12.388Z,61.37
2023-01-25T08:43:39.365Z,64.20
2023-01-25T08:46:07.040Z,66.93
2023-01-25T08:48:34.238Z,64.63
2023-01-25T08:51:01.020Z,62.93
2023-01-25T08:53:29.185Z,64.13
2023-01-25T08:55:55.912Z,60.00
2023-01-25T08:58:22.700Z,58.43
2023-01-25T09:00:49.918Z,55.27
2023-01-25T09:03:18.257Z,50.97
2023-01-25T09:05:45.283Z,45.93
2023-01-25T09:08:12.028Z,53.07
2023-01-25T09:10:38.802Z,52.33
2023-01-25T09:13:07.755Z,47.43
2023-01-25T09:15:35.472Z,51.43
2023-01-25T09:18:02.277Z,51.30
2023-01-25T09:20:31.707Z,50.63
2023-01-25T09:23:01.066Z,52.73
2023-01-25T09:25:27.963Z,52.13
2023-01-25T09:27:54.777Z,55.33
2023-01-25T09:30:24.673Z,51.17
2023-01-25T09:32:57.456Z,48.03
2023-01-25T09:35:24.348Z,50.93
2023-01-25T09:37:52.622Z,53.37
2023-01-25T09:40:22.293Z,54.20
2023-01-25T09:43:03.992Z,48.63
2023-01-25T09:45:32.618Z,48.03
2023-01-25T09:48:14.140Z,52.07
2023-01-25T09:51:02.094Z,47.43
2023-01-25T09:53:41.046Z,49.17
2023-01-25T09:56:17.606Z,51.47
2023-01-25T09:58:47.649Z,47.20
2023-01-25T10:01:38.561Z,54.43
2023-01-25T10:04:35.663Z,52.40
2023-01-25T10:07:22.239Z,49.73
2023-01-25T10:10:02.614Z,46.10
2023-01-25T10:12:36.763Z,48.77
2023-01-25T10:15:21.284Z,48.30
2023-01-25T10:18:21.529Z,47.93
2023-01-25T10:21:33.612Z,53.43
2023-01-25T10:24:24.853Z,52.70
2023-01-25T10:27:07.874Z,49.23
2023-01-25T10:29:37.451Z,53.17
2023-01-25T10:32:28.255Z,54.00
2023-01-25T10:34:58.286Z,52.73
2023-01-25T10:37:32.641Z,54.40
2023-01-25T10:40:22.718Z,50.03
2023-01-25T10:43:00.597Z,55.77
2023-01-25T10:45:27.331Z,55.50
2023-01-25T10:48:03.552Z,55.20
2023-01-25T10:50:41.023Z,58.57
2023-01-25T10:53:22.246Z,49.07
2023-01-25T10:56:13.232Z,57.50
2023-01-25T10:58:42.549Z,54.67
2023-01-25T11:01:14.231Z,54.97
2023-01-25T11:03:46.329Z,61.87
2023-01-25T11:06:13.279Z,55.30
2023-01-25T11:08:43.123Z,58.37
2023-01-25T11:11:36.592Z,57.23
2023-01-25T11:14:16.375Z,58.53
2023-01-25T11:16:47.989Z,57.03
2023-01-25T11:19:35.723Z,50.83
2023-01-25T11:22:19.057Z,57.27
2023-01-25T11:24:46.511Z,56.43
2023-01-25T11:27:24.941Z,54.90
2023-01-25T11:30:15.966Z,55.40
2023-01-25T11:32:43.008Z,53.83
2023-01-25T11:35:21.016Z,58.57
2023-01-25T11:37:56.916Z,63.17
2023-01-25T11:40:41.750Z,51.73
2023-01-25T11:43:11.492Z,59.90
2023-01-25T11:45:46.532Z,65.00
2023-01-25T11:48:33.404Z,55.37
2023-01-25T11:51:08.945Z,65.10
2023-01-25T11:53:51.263Z,64.80
2023-01-25T11:56:42.663Z,62.13
2023-01-25T11:59:15.087Z,64.93
2023-01-25T12:01:48.085Z,61.90
2023-01-25T12:04:39.571Z,57.20
2023-01-25T12:07:14.061Z,68.53
2023-01-25T12:10:34.922Z,62.43
2023-01-25T12:13:22.139Z,59.13
2023-01-25T12:16:06.201Z,69.03
2023-01-25T12:18:47.349Z,68.13
2023-01-25T12:21:26.367Z,67.63
2023-01-25T12:24:17.160Z,61.57
2023-01-25T12:27:07.688Z,73.47
2023-01-25T12:29:44.691Z,69.60
2023-01-25T12:32:19.216Z,63.27
2023-01-25T12:35:04.030Z,71.23
2023-01-25T12:37:39.694Z,70.37
2023-01-25T12:40:14.698Z,70.20
2023-01-25T12:42:52.131Z,75.77
2023-01-25T12:45:31.647Z,76.17
2023-01-25T12:48:13.964Z,67.97
2023-01-25T12:50:45.275Z,73.93
2023-01-25T12:53:23.334Z,70.67
2023-01-25T12:55:50.729Z,79.03
2023-01-25T12:58:37.450Z,74.63
2023-01-25T13:01:26.500Z,79.27
2023-01-25T13:04:20.125Z,75.17
2023-01-25T13:07:10.248Z,73.57
2023-01-25T13:10:10.540Z,69.43
2023-01-25T13:12:55.852Z,65.07
2023-01-25T13:15:40.357Z,70.77
2023-01-25T13:18:36.666Z,69.90
2023-01-25T13:21:11.488Z,70.43
2023-01-25T13:23:44.124Z,73.80
2023-01-25T13:26:26.214Z,72.73
2023-01-25T13:28:54.908Z,72.63
2023-01-25T13:31:51.667Z,67.47
2023-01-25T13:34:39.033Z,75.00
2023-01-25T13:37:31.104Z,69.77
2023-01-25T13:40:29.345Z,67.43
2023-01-25T13:43:13.239Z,69.20
2023-01-25T13:45:41.613Z,69.23
2023-01-25T13:48:21.978Z,79.23
2023-01-25T13:51:16.541Z,69.83
2023-01-25T13:53:55.726Z,72.13
2023-01-25T13:56:34.248Z,69.30
2023-01-25T13:59:01.501Z,67.47
2023-01-25T14:01:31.910Z,72.23
2023-01-25T14:04:04.576Z,65.63
2023-01-25T14:06:40.500Z,76.30
2023-01-25T14:09:17.200Z,72.33
2023-01-25T14:12:04.298Z,67.87
2023-01-25T14:14:34.284Z,70.37
2023-01-25T14:17:16.854Z,71.90
2023-01-25T14:19:48.763Z,69.27
2023-01-25T14:22:32.349Z,80.80
2023-01-25T14:25:12.757Z,72.37
2023-01-25T14:27:50.965Z,70.70
2023-01-25T14:30:30.596Z,76.80
2023-01-25T14:33:19.322Z,72.60
2023-01-25T14:35:55.630Z,71.67
2023-01-25T14:38:25.273Z,72.63
2023-01-25T14:40:59.294Z,69.73
2023-01-25T14:43:26.833Z,68.37
2023-01-25T14:45:54.001Z,73.07
2023-01-25T14:48:42.097Z,78.67
2023-01-25T14:51:14.286Z,71.53
2023-01-25T14:53:44.626Z,74.80
2023-01-25T14:56:39.541Z,71.93
2023-01-25T14:59:07.236Z,78.83
2023-01-25T15:01:41.128Z,85.30
2023-01-25T15:04:12.929Z,76.10
2023-01-25T15:06:50.796Z,77.50
2023-01-25T15:09:42.983Z,79.23
2023-01-25T15:12:41.999Z,82.27
2023-01-25T15:15:20.995Z,74.77
2023-01-25T15:17:50.845Z,82.40
2023-01-25T15:20:28.242Z,84.27
2023-01-25T15:22:57.167Z,86.70
2023-01-25T15:25:24.698Z,81.40
2023-01-25T15:27:51.920Z,86.10
2023-01-25T15:30:19.269Z,88.43
2023-01-25T15:32:46.611Z,84.03
2023-01-25T15:35:21.642Z,83.27
2023-01-25T15:37:49.498Z,78.93
2023-01-25T15:40:17.124Z,72.40
2023-01-25T15:42:44.031Z,90.67
2023-01-25T15:45:11.210Z,79.37
2023-01-25T15:47:38.718Z,79.87
2023-01-25T15:50:06.470Z,85.97
2023-01-25T15:52:33.238Z,77.63
2023-01-25T15:55:02.105Z,78.93
2023-01-25T15:57:34.547Z,79.70
2023-01-25T16:00:02.433Z,80.53
2023-01-25T16:02:29.384Z,81.20
2023-01-25T16:04:56.170Z,75.47
2023-01-25T16:07:29.077Z,70.07
2023-01-25T16:09:55.816Z,72.80
2023-01-25T16:12:22.757Z,81.70
2023-01-25T16:14:49.527Z,78.67
2023-01-25T16:17:19.106Z,94.20
2023-01-25T16:19:47.822Z,78.97
2023-01-25T16:22:18.634Z,80.40
2023-01-25T16:24:45.969Z,83.00
2023-01-25T16:27:22.700Z,79.80
2023-01-25T16:29:49.525Z,82.37
2023-01-25T16:32:16.374Z,82.90
2023-01-25T16:34:43.126Z,89.67
2023-01-25T16:37:17.270Z,89.67
2023-01-25T16:39:44.527Z,96.40
2023-01-25T16:42:11.707Z,92.33
2023-01-25T16:44:38.976Z,86.33
2023-01-25T16:47:05.862Z,96.23
2023-01-25T16:49:33.479Z,85.57
2023-01-25T16:52:02.859Z,89.53
2023-01-25T16:54:29.673Z,83.37
2023-01-25T16:56:56.786Z,78.40
2023-01-25T16:59:24.624Z,75.30
2023-01-25T17:01:51.989Z,79.43
2023-01-25T17:04:19.176Z,74.50
2023-01-25T17:06:49.325Z,77.50
2023-01-25T17:09:24.826Z,73.90
2023-01-25T17:11:55.354Z,77.43
2023-01-25T17:14:22.419Z,81.07
2023-01-25T17:16:51.529Z,76.60
2023-01-25T17:19:19.460Z,81.80
2023-01-25T17:21:46.573Z,70.10
2023-01-25T17:24:16.488Z,78.83
2023-01-25T17:26:43.277Z,70.20
2023-01-25T17:29:10.432Z,72.43
2023-01-25T17:31:37.606Z,72.53
2023-01-25T17:34:07.179Z,70.10
2023-01-25T17:36:34.113Z,69.40
2023-01-25T17:39:08.309Z,62.43
2023-01-25T17:41:35.196Z,70.73
2023-01-25T17:44:02.641Z,70.20
2023-01-25T17:46:35.093Z,76.40
2023-01-25T17:49:03.238Z,64.00
2023-01-25T17:51:31.460Z,68.73
2023-01-25T17:53:58.391Z,73.77
2023-01-25T17:56:25.904Z,71.77
2023-01-25T17:58:53.156Z,69.07
2023-01-25T18:01:25.713Z,63.30
2023-01-25T18:03:53.891Z,68.97
2023-01-25T18:06:24.950Z,79.07
2023-01-25T18:08:54.208Z,66.83
2023-01-25T18:11:24.769Z,75.80
2023-01-25T18:13:57.830Z,71.63
2023-01-25T18:16:26.903Z,72.93
2023-01-25T18:18:55.574Z,71.93
2023-01-25T18:21:25.456Z,72.77
2023-01-25T18:23:55.268Z,67.93
2023-01-25T18:26:27.920Z,72.10
2023-01-25T18:28:59.555Z,69.00
2023-01-25T18:31:26.637Z,69.17
2023-01-25T18:33:53.473Z,72.43
2023-01-25T18:36:20.510Z,68.97
2023-01-25T18:38:47.255Z,74.00
2023-01-25T18:41:14.041Z,77.37
2023-01-25T18:43:40.869Z,69.13
2023-01-25T18:46:07.857Z,67.63
2023-01-25T18:48:34.707Z,64.90
2023-01-25T18:51:07.987Z,75.00
2023-01-25T18:53:36.363Z,64.07
2023-01-25T18:56:07.845Z,79.97
2023-01-25T18:58:36.409Z,76.33
2023-01-25T19:01:20.933Z,69.13
2023-01-25T19:03:49.617Z,71.00
2023-01-25T19:06:17.150Z,69.77
2023-01-25T19:08:46.507Z,76.87
2023-01-25T19:11:19.908Z,87.73
2023-01-25T19:13:46.756Z,87.83
2023-01-25T19:16:19.629Z,77.30
2023-01-25T19:18:49.902Z,91.57
2023-01-25T19:21:19.987Z,82.40
2023-01-25T19:23:47.379Z,86.87
2023-01-25T19:26:17.230Z,82.47
2023-01-25T19:28:44.526Z,83.70
2023-01-25T19:31:15.994Z,75.17
2023-01-25T19:33:43.543Z,79.70
2023-01-25T19:36:16.754Z,76.70
2023-01-25T19:38:44.375Z,83.70
2023-01-25T19:41:13.242Z,73.27
2023-01-25T19:43:43.748Z,79.73
2023-01-25T19:46:14.830Z,82.37
2023-01-25T19:48:42.487Z,76.00
2023-01-25T19:51:15.154Z,88.77
2023-01-25T19:53:47.482Z,84.27
2023-01-25T19:56:16.279Z,80.53
2023-01-25T19:58:47.432Z,87.57
2023-01-25T20:01:16.664Z,86.50
2023-01-25T20:03:44.021Z,94.80
2023-01-25T20:06:12.207Z,91.37
2023-01-25T20:08:41.052Z,90.03
2023-01-25T20:11:17.534Z,84.30
2023-01-25T20:13:44.296Z,79.53
2023-01-25T20:16:12.613Z,87.40
2023-01-25T20:18:40.038Z,82.73
2023-01-25T20:21:19.356Z,83.60
2023-01-25T20:23:48.919Z,93.17
2023-01-25T20:26:18.351Z,91.07
2023-01-25T20:28:47.534Z,86.63
2023-01-25T20:31:35.003Z,90.97
2023-01-25T20:34:07.687Z,92.50
2023-01-25T20:36:35.866Z,93.83
2023-01-25T20:39:03.005Z,94.97
2023-01-25T20:41:29.772Z,101.63
2023-01-25T20:44:02.037Z,98.93
2023-01-25T20:46:33.659Z,102.07
2023-01-25T20:49:04.030Z,99.00
2023-01-25T20:51:30.874Z,100.50
2023-01-25T20:54:00.044Z,103.13
2023-01-25T20:56:27.116Z,112.00
2023-01-25T20:58:54.978Z,102.90
2023-01-25T21:01:29.525Z,100.87
2023-01-25T21:03:57.857Z,100.07
2023-01-25T21:06:26.254Z,101.93
2023-01-25T21:08:53.115Z,93.00
2023-01-25T21:11:20.399Z,104.20
2023-01-25T21:13:48.155Z,96.73
2023-01-25T21:16:21.683Z,99.13
2023-01-25T21:18:57.697Z,86.33
2023-01-25T21:21:29.237Z,86.27
2023-01-25T21:23:59.677Z,89.47
2023-01-25T21:26:29.544Z,92.37
2023-01-25T21:28:58.134Z,90.53
2023-01-25T21:31:30.831Z,95.03
2023-01-25T21:33:57.635Z,93.33
2023-01-25T21:36:25.279Z,90.03
2023-01-25T21:38:53.888Z,100.13
2023-01-25T21:41:24.428Z,92.57
2023-01-25T21:44:11.847Z,87.93
2023-01-25T21:46:39.257Z,91.50
2023-01-25T21:49:26.706Z,88.77
2023-01-25T21:51:55.917Z,90.97
2023-01-25T21:54:27.176Z,85.43
2023-01-25T21:56:56.483Z,86.50
2023-01-25T21:59:23.971Z,94.50
2023-01-25T22:01:51.564Z,86.57
2023-01-25T22:04:20.319Z,77.03
2023-01-25T22:06:54.512Z,79.33
2023-01-25T22:09:22.723Z,83.13
2023-01-25T22:11:50.831Z,79.97
2023-01-25T22:14:24.425Z,79.80
2023-01-25T22:16:52.045Z,71.50
2023-01-25T22:19:19.291Z,78.23
2023-01-25T22:21:46.114Z,80.07
2023-01-25T22:24:13.592Z,74.43
2023-01-25T22:26:43.405Z,73.13
2023-01-25T22:29:10.223Z,69.70
2023-01-25T22:31:37.145Z,66.53
2023-01-25T22:34:04.348Z,85.03
2023-01-25T22:36:31.777Z,75.87
2023-01-25T22:39:00.329Z,66.13
2023-01-25T22:41:30.658Z,67.80
2023-01-25T22:43:57.969Z,66.80
2023-01-25T22:46:27.638Z,67.93
2023-01-25T22:48:54.983Z,67.00
2023-01-25T22:51:29.558Z,80.13
2023-01-25T22:53:57.700Z,74.90
2023-01-25T22:56:34.144Z,65.67
2023-01-25T22:59:01.481Z,68.33
2023-01-25T23:01:33.669Z,64.77
2023-01-25T23:04:01.816Z,63.27
2023-01-25T23:06:30.490Z,62.30
2023-01-25T23:09:00.053Z,62.57
2023-01-25T23:11:32.176Z,65.77
2023-01-25T23:14:18.635Z,64.13
2023-01-25T23:16:45.904Z,61.13
2023-01-25T23:19:12.859Z,68.33
2023-01-25T23:21:39.701Z,61.40
2023-01-25T23:24:06.957Z,64.57
2023-01-25T23:26:39.019Z,59.80
2023-01-25T23:29:09.133Z,62.60
2023-01-25T23:31:36.682Z,63.37
2023-01-25T23:34:05.319Z,64.43
2023-01-25T23:36:34.901Z,61.67
2023-01-25T23:39:02.702Z,65.03
2023-01-25T23:41:30.274Z,55.37
2023-01-25T23:43:58.023Z,61.30
2023-01-25T23:46:25.307Z,53.90
2023-01-25T23:48:52.303Z,58.13
2023-01-25T23:51:19.829Z,54.07
2023-01-25T23:53:47.421Z,54.03
2023-01-25T23:56:20.167Z,64.90
2023-01-25T23:58:48.038Z,59.57
